Piper — WDE6779 — position and weather

sailwx.info

Track history (hours):
 
Tides and Currents Weather Stations Pressure Air Temp Water Temp Dewpoint Dewpoint Depression Visibility Wind Speed Wind Dir Waves Ship Positions

Piper

Owner: ADS MARINE, LLC, MORGAN CITY, LA. More information available from US FCC via Universal Licensing System and Coast Guard Vessel Documentation Center.

Last reported at 2017-Jul-25 07:38 UTC. Time now 2017-Jul-26 18:35 UTC.
Position N 29°07' W 091°59'.

Length 40 m; draft 3 m.

Type: Cargo ship. MMSI: 367384720.

Date/timePositionNaut miles runAvg speedWind from/ knotsBaromVisibWave heightAir tempDewpointWater temp
2017-Jul-25 07:38N 29°07' W 091°59'  
2017-Jul-18 01:58N 29°34' W 092°18'3 6.9
2017-Jul-18 01:28N 29°38' W 092°16'3 6.5
2017-Jul-18 01:01N 29°40' W 092°15'4 7.0
2017-Jul-18 00:31N 29°44' W 092°14'4 7.0
2017-Jul-18 00:01N 29°46' W 092°11'1 1.9
2017-Jul-17 23:31N 29°47' W 092°11'0 0.0
2017-Jul-17 23:01N 29°47' W 092°11'0 0.3
2017-Jul-17 22:30N 29°47' W 092°11'0 0.0
2017-Jul-17 22:00N 29°47' W 092°11'0 0.0
2017-Jul-17 21:31N 29°47' W 092°11'0 0.0
2017-Jul-17 21:00N 29°47' W 092°11'0 0.2
2017-Jul-17 20:31N 29°47' W 092°11'0 0.2
2017-Jul-17 20:00N 29°47' W 092°11'1 1.5
2017-Jul-17 19:31N 29°47' W 092°10'0 0.0
2017-Jul-17 19:01N 29°47' W 092°10'0 0.0
2017-Jul-17 18:31N 29°47' W 092°10'0 0.0
2017-Jul-17 18:01N 29°47' W 092°10'0 0.0
2017-Jul-17 17:31N 29°47' W 092°10'0 0.0
2017-Jul-17 17:00N 29°47' W 092°10'0 0.0
2017-Jul-17 16:30N 29°47' W 092°10'0 0.0
2017-Jul-17 16:00N 29°47' W 092°10'0 0.0
2017-Jul-17 15:31N 29°47' W 092°10'0 0.0
2017-Jul-17 15:01N 29°47' W 092°10'0 0.0
2017-Jul-17 14:31N 29°47' W 092°10'0 0.0
2017-Jul-17 14:00N 29°47' W 092°10'0 0.0
2017-Jul-17 13:30N 29°47' W 092°10'0 0.0
2017-Jul-17 13:01N 29°47' W 092°10'0 0.0
2017-Jul-17 12:30N 29°47' W 092°10'1 1.4
2017-Jul-17 12:01N 29°47' W 092°11'0 0.3
2017-Jul-17 11:31N 29°47' W 092°11'0 0.0
2017-Jul-17 11:01N 29°47' W 092°11'0 0.0
2017-Jul-17 10:31N 29°47' W 092°11'1 1.5
2017-Jul-17 10:01N 29°46' W 092°10'4 8.0
2017-Jul-17 09:30N 29°44' W 092°14'4 7.7
2017-Jul-17 09:00N 29°40' W 092°15'2 4.0
2017-Jul-17 08:31N 29°38' W 092°16'  
Track history (hours):
 
Tides and Currents Weather Stations Pressure Air Temp Water Temp Dewpoint Dewpoint Depression Visibility Wind Speed Wind Dir Waves Ship Positions

Piper

Owner: ADS MARINE, LLC, MORGAN CITY, LA. More information available from US FCC via Universal Licensing System and Coast Guard Vessel Documentation Center.

Last reported at 2017-Jul-25 07:38 UTC. Time now 2017-Jul-26 18:35 UTC.
Position N 29°07' W 091°59'.

Length 40 m; draft 3 m.

Type: Cargo ship. MMSI: 367384720.

Date/timePositionNaut miles runAvg speedWind from/ knotsBaromVisibWave heightAir tempDewpointWater temp
2017-Jul-25 07:38N 29°07' W 091°59'  
2017-Jul-18 01:58N 29°34' W 092°18'3 6.9
2017-Jul-18 01:28N 29°38' W 092°16'3 6.5
2017-Jul-18 01:01N 29°40' W 092°15'4 7.0
2017-Jul-18 00:31N 29°44' W 092°14'4 7.0
2017-Jul-18 00:01N 29°46' W 092°11'1 1.9
2017-Jul-17 23:31N 29°47' W 092°11'0 0.0
2017-Jul-17 23:01N 29°47' W 092°11'0 0.3
2017-Jul-17 22:30N 29°47' W 092°11'0 0.0
2017-Jul-17 22:00N 29°47' W 092°11'0 0.0
2017-Jul-17 21:31N 29°47' W 092°11'0 0.0
2017-Jul-17 21:00N 29°47' W 092°11'0 0.2
2017-Jul-17 20:31N 29°47' W 092°11'0 0.2
2017-Jul-17 20:00N 29°47' W 092°11'1 1.5
2017-Jul-17 19:31N 29°47' W 092°10'0 0.0
2017-Jul-17 19:01N 29°47' W 092°10'0 0.0
2017-Jul-17 18:31N 29°47' W 092°10'0 0.0
2017-Jul-17 18:01N 29°47' W 092°10'0 0.0
2017-Jul-17 17:31N 29°47' W 092°10'0 0.0
2017-Jul-17 17:00N 29°47' W 092°10'0 0.0
2017-Jul-17 16:30N 29°47' W 092°10'0 0.0
2017-Jul-17 16:00N 29°47' W 092°10'0 0.0
2017-Jul-17 15:31N 29°47' W 092°10'0 0.0
2017-Jul-17 15:01N 29°47' W 092°10'0 0.0
2017-Jul-17 14:31N 29°47' W 092°10'0 0.0
2017-Jul-17 14:00N 29°47' W 092°10'0 0.0
2017-Jul-17 13:30N 29°47' W 092°10'0 0.0
2017-Jul-17 13:01N 29°47' W 092°10'0 0.0
2017-Jul-17 12:30N 29°47' W 092°10'1 1.4
2017-Jul-17 12:01N 29°47' W 092°11'0 0.3
2017-Jul-17 11:31N 29°47' W 092°11'0 0.0
2017-Jul-17 11:01N 29°47' W 092°11'0 0.0
2017-Jul-17 10:31N 29°47' W 092°11'1 1.5
2017-Jul-17 10:01N 29°46' W 092°10'4 8.0
2017-Jul-17 09:30N 29°44' W 092°14'4 7.7
2017-Jul-17 09:00N 29°40' W 092°15'2 4.0
2017-Jul-17 08:31N 29°38' W 092°16'  

Dump ship's entire track history